createdAt,value
2023-03-17T00:02:05.331Z,86.36
2023-03-17T00:04:40.640Z,86.46
2023-03-17T00:07:15.667Z,86.51
2023-03-17T00:09:48.916Z,86.62
2023-03-17T00:12:17.928Z,86.43
2023-03-17T00:14:48.946Z,86.14
2023-03-17T00:17:17.788Z,86.36
2023-03-17T00:19:48.736Z,86.34
2023-03-17T00:22:18.519Z,86.25
2023-03-17T00:24:48.189Z,86.15
2023-03-17T00:27:19.357Z,86.32
2023-03-17T00:29:50.436Z,86.05
2023-03-17T00:32:20.804Z,85.73
2023-03-17T00:34:56.689Z,85.85
2023-03-17T00:37:27.728Z,86.04
2023-03-17T00:39:59.383Z,85.79
2023-03-17T00:42:28.779Z,85.81
2023-03-17T00:44:58.506Z,85.61
2023-03-17T00:47:27.649Z,85.63
2023-03-17T00:49:57.988Z,85.51
2023-03-17T00:52:34.540Z,85.45
2023-03-17T00:55:05.349Z,85.26
2023-03-17T00:57:34.788Z,85.22
2023-03-17T01:00:05.051Z,84.79
2023-03-17T01:02:36.522Z,84.67
2023-03-17T01:05:08.002Z,84.72
2023-03-17T01:07:39.225Z,84.63
2023-03-17T01:10:17.208Z,84.61
2023-03-17T01:12:46.391Z,84.55
2023-03-17T01:15:15.969Z,84.21
2023-03-17T01:17:46.257Z,84.27
2023-03-17T01:20:24.345Z,84.22
2023-03-17T01:22:53.116Z,83.82
2023-03-17T01:25:21.803Z,83.68
2023-03-17T01:27:51.936Z,83.47
2023-03-17T01:30:32.532Z,83.66
2023-03-17T01:33:04.135Z,83.59
2023-03-17T01:35:35.009Z,83.70
2023-03-17T01:38:05.445Z,83.44
2023-03-17T01:40:37.147Z,83.50
2023-03-17T01:43:11.517Z,83.35
2023-03-17T01:46:07.546Z,83.35
2023-03-17T01:48:39.017Z,83.23
2023-03-17T01:51:08.275Z,83.13
2023-03-17T01:53:37.571Z,83.30
2023-03-17T01:56:09.091Z,83.56
2023-03-17T01:58:38.528Z,83.73
2023-03-17T02:01:08.136Z,83.59
2023-03-17T02:03:38.090Z,83.50
2023-03-17T02:06:08.410Z,83.46
2023-03-17T02:08:39.861Z,83.50
2023-03-17T02:11:10.021Z,83.54
2023-03-17T02:13:38.972Z,83.71
2023-03-17T02:16:17.876Z,83.34
2023-03-17T02:18:48.982Z,83.64
2023-03-17T02:21:31.621Z,83.46
2023-03-17T02:24:36.081Z,83.59
2023-03-17T02:27:16.996Z,83.68
2023-03-17T02:29:46.603Z,83.45
2023-03-17T02:32:16.079Z,83.59
2023-03-17T02:34:47.293Z,83.44
2023-03-17T02:37:17.476Z,83.58
2023-03-17T02:39:46.774Z,83.53
2023-03-17T02:42:15.380Z,83.24
2023-03-17T02:44:44.304Z,83.07
2023-03-17T02:47:17.959Z,82.99
2023-03-17T02:49:46.939Z,83.18
2023-03-17T02:52:16.364Z,83.13
2023-03-17T02:54:44.935Z,83.07
2023-03-17T02:57:13.519Z,82.84
2023-03-17T02:59:46.489Z,82.79
2023-03-17T03:02:18.514Z,82.96
2023-03-17T03:04:48.643Z,82.95
2023-03-17T03:07:30.989Z,83.04
2023-03-17T03:10:00.967Z,83.04
2023-03-17T03:12:37.369Z,83.00
2023-03-17T03:15:09.939Z,83.07
2023-03-17T03:17:39.592Z,83.21
2023-03-17T03:20:11.622Z,83.26
2023-03-17T03:22:41.491Z,83.42
2023-03-17T03:25:11.251Z,83.27
2023-03-17T03:27:42.418Z,83.39
2023-03-17T03:30:12.597Z,83.43
2023-03-17T03:32:44.795Z,83.62
2023-03-17T03:35:17.168Z,83.59
2023-03-17T03:37:50.565Z,83.67
2023-03-17T03:40:21.147Z,83.74
2023-03-17T03:42:51.132Z,83.76
2023-03-17T03:45:20.685Z,83.77
2023-03-17T03:47:49.354Z,83.71
2023-03-17T03:50:19.994Z,83.90
2023-03-17T03:52:49.607Z,83.98
2023-03-17T03:55:19.508Z,83.90
2023-03-17T03:57:51.248Z,84.23
2023-03-17T04:00:21.698Z,83.98
2023-03-17T04:02:54.342Z,84.07
2023-03-17T04:05:24.395Z,84.05
2023-03-17T04:07:59.105Z,83.97
2023-03-17T04:10:30.263Z,83.97
2023-03-17T04:13:05.644Z,84.02
2023-03-17T04:15:36.225Z,83.93
2023-03-17T04:18:05.846Z,84.19
2023-03-17T04:20:37.425Z,84.03
2023-03-17T04:23:07.356Z,84.29
2023-03-17T04:25:43.474Z,84.42
2023-03-17T04:28:16.676Z,84.19
2023-03-17T04:30:51.870Z,84.22
2023-03-17T04:33:20.993Z,84.21
2023-03-17T04:35:50.270Z,84.05
2023-03-17T04:38:25.225Z,84.23
2023-03-17T04:40:57.829Z,84.11
2023-03-17T04:43:30.637Z,84.40
2023-03-17T04:46:06.236Z,84.26
2023-03-17T04:48:38.081Z,84.05
2023-03-17T04:51:11.488Z,84.13
2023-03-17T04:53:43.161Z,84.37
2023-03-17T04:56:13.716Z,83.96
2023-03-17T04:58:47.573Z,84.20
2023-03-17T05:01:18.835Z,84.15
2023-03-17T05:03:47.636Z,83.92
2023-03-17T05:06:17.310Z,83.86
2023-03-17T05:08:46.465Z,83.97
2023-03-17T05:11:17.681Z,84.21
2023-03-17T05:13:48.179Z,84.14
2023-03-17T05:16:18.152Z,84.00
2023-03-17T05:18:49.906Z,84.18
2023-03-17T05:21:19.013Z,84.24
2023-03-17T05:23:47.287Z,84.26
2023-03-17T05:26:16.163Z,84.14
2023-03-17T05:28:48.726Z,84.23
2023-03-17T05:31:20.584Z,84.12
2023-03-17T05:33:51.742Z,84.09
2023-03-17T05:36:21.511Z,84.12
2023-03-17T05:38:52.799Z,84.06
2023-03-17T05:41:22.590Z,84.16
2023-03-17T05:43:52.815Z,84.12
2023-03-17T05:46:30.260Z,84.02
2023-03-17T05:49:02.005Z,84.05
2023-03-17T05:51:31.820Z,83.78
2023-03-17T05:54:05.680Z,83.60
2023-03-17T05:56:35.031Z,83.81
2023-03-17T05:59:09.460Z,83.84
2023-03-17T06:01:40.336Z,83.85
2023-03-17T06:04:13.768Z,83.81
2023-03-17T06:06:43.980Z,83.81
2023-03-17T06:09:19.254Z,83.65
2023-03-17T06:11:49.114Z,83.60
2023-03-17T06:14:19.333Z,83.28
2023-03-17T06:17:09.592Z,83.30
2023-03-17T06:19:49.437Z,83.47
2023-03-17T06:22:20.095Z,83.54
2023-03-17T06:24:56.085Z,83.46
2023-03-17T06:27:27.935Z,83.10
2023-03-17T06:30:00.920Z,83.19
2023-03-17T06:32:30.809Z,82.74
2023-03-17T06:34:59.322Z,83.02
2023-03-17T06:37:29.341Z,82.92
2023-03-17T06:40:06.435Z,82.85
2023-03-17T06:42:38.447Z,82.56
2023-03-17T06:45:10.869Z,82.38
2023-03-17T06:47:49.183Z,82.13
2023-03-17T06:50:19.082Z,82.08
2023-03-17T06:52:50.556Z,82.32
2023-03-17T06:55:22.077Z,82.02
2023-03-17T06:58:17.897Z,82.26
2023-03-17T07:00:47.635Z,81.85
2023-03-17T07:03:17.172Z,81.90
2023-03-17T07:05:47.021Z,82.17
2023-03-17T07:08:20.522Z,81.86
2023-03-17T07:10:51.566Z,81.59
2023-03-17T07:13:21.198Z,81.56
2023-03-17T07:15:53.336Z,81.71
2023-03-17T07:18:28.044Z,81.73
2023-03-17T07:21:04.022Z,81.18
2023-03-17T07:23:34.659Z,81.38
2023-03-17T07:26:05.994Z,81.24
2023-03-17T07:28:36.538Z,81.35
2023-03-17T07:31:11.974Z,81.20
2023-03-17T07:33:59.560Z,81.00
2023-03-17T07:36:29.901Z,80.84
2023-03-17T07:38:58.856Z,80.77
2023-03-17T07:41:29.145Z,80.78
2023-03-17T07:44:13.718Z,80.91
2023-03-17T07:46:55.128Z,80.87
2023-03-17T07:49:40.403Z,80.78
2023-03-17T07:52:13.355Z,80.92
2023-03-17T07:54:47.689Z,80.47
2023-03-17T07:57:18.690Z,80.24
2023-03-17T07:59:57.328Z,80.12
2023-03-17T08:02:26.444Z,80.00
2023-03-17T08:04:57.234Z,80.04
2023-03-17T08:07:44.731Z,80.09
2023-03-17T08:10:15.334Z,79.83
2023-03-17T08:12:54.826Z,80.06
2023-03-17T08:15:25.789Z,79.86
2023-03-17T08:17:58.398Z,79.95
2023-03-17T08:20:28.280Z,79.66
2023-03-17T08:23:13.314Z,79.60
2023-03-17T08:26:19.584Z,79.36
2023-03-17T08:29:08.275Z,79.63
2023-03-17T08:31:38.758Z,79.27
2023-03-17T08:34:07.409Z,79.25
2023-03-17T08:36:38.744Z,79.36
2023-03-17T08:39:15.962Z,78.77
2023-03-17T08:42:39.529Z,78.44
2023-03-17T08:45:11.446Z,77.99
2023-03-17T08:47:47.218Z,77.84
2023-03-17T08:50:23.756Z,77.72
2023-03-17T08:52:55.364Z,77.63
2023-03-17T08:55:36.940Z,78.05
2023-03-17T08:58:09.898Z,77.75
2023-03-17T09:01:02.736Z,77.50
2023-03-17T09:03:33.387Z,77.33
2023-03-17T09:06:32.615Z,77.12
2023-03-17T09:09:07.228Z,76.99
2023-03-17T09:11:51.521Z,76.52
2023-03-17T09:14:21.771Z,76.65
2023-03-17T09:16:54.013Z,76.66
2023-03-17T09:19:26.561Z,76.48
2023-03-17T09:21:59.112Z,76.47
2023-03-17T09:24:32.988Z,76.20
2023-03-17T09:27:11.178Z,76.15
2023-03-17T09:29:50.058Z,75.75
2023-03-17T09:32:22.924Z,75.72
2023-03-17T09:35:04.208Z,75.69
2023-03-17T09:37:36.070Z,75.65
2023-03-17T09:40:16.001Z,75.50
2023-03-17T09:43:28.488Z,75.30
2023-03-17T09:46:04.023Z,75.41
2023-03-17T09:49:13.998Z,75.57
2023-03-17T09:51:45.306Z,75.81
2023-03-17T09:54:31.756Z,75.99
2023-03-17T09:57:17.089Z,75.93
2023-03-17T09:59:55.434Z,75.75
2023-03-17T10:02:33.816Z,75.59
2023-03-17T10:05:30.635Z,75.35
2023-03-17T10:08:32.089Z,75.35
2023-03-17T10:11:02.953Z,75.66
2023-03-17T10:14:22.328Z,75.43
2023-03-17T10:17:52.593Z,75.77
2023-03-17T10:21:00.233Z,75.81
2023-03-17T10:23:45.696Z,75.63
2023-03-17T10:26:33.218Z,75.56
2023-03-17T10:29:08.485Z,75.47
2023-03-17T10:31:39.801Z,75.43
2023-03-17T10:34:20.526Z,75.11
2023-03-17T10:36:51.683Z,75.04
2023-03-17T10:39:25.424Z,74.76
2023-03-17T10:42:21.516Z,74.22
2023-03-17T10:45:07.860Z,74.14
2023-03-17T10:47:41.277Z,74.27
2023-03-17T10:50:12.246Z,74.48
2023-03-17T10:52:47.693Z,74.81
2023-03-17T10:55:22.414Z,74.74
2023-03-17T10:58:07.614Z,74.77
2023-03-17T11:01:28.002Z,74.58
2023-03-17T11:03:59.544Z,74.44
2023-03-17T11:06:44.477Z,74.63
2023-03-17T11:09:19.663Z,74.61
2023-03-17T11:12:07.264Z,74.29
2023-03-17T11:14:36.776Z,74.08
2023-03-17T11:17:34.070Z,73.92
2023-03-17T11:20:12.234Z,73.73
2023-03-17T11:22:59.694Z,73.75
2023-03-17T11:25:32.362Z,74.11
2023-03-17T11:28:32.238Z,74.09
2023-03-17T11:31:25.311Z,74.33
2023-03-17T11:34:02.567Z,74.49
2023-03-17T11:36:39.553Z,74.29
2023-03-17T11:39:13.382Z,74.54
2023-03-17T11:41:57.253Z,74.29
2023-03-17T11:44:52.390Z,74.56
2023-03-17T11:47:36.772Z,74.89
2023-03-17T11:50:34.277Z,74.75
2023-03-17T11:53:39.564Z,74.80
2023-03-17T11:56:49.018Z,75.07
2023-03-17T11:59:44.218Z,75.07
2023-03-17T12:02:44.136Z,75.04
2023-03-17T12:05:27.724Z,75.03
2023-03-17T12:08:14.793Z,75.00
2023-03-17T12:10:51.616Z,75.10
2023-03-17T12:13:37.799Z,75.04
2023-03-17T12:16:12.051Z,75.00
2023-03-17T12:19:01.537Z,75.10
2023-03-17T12:21:53.020Z,75.12
2023-03-17T12:24:50.570Z,75.11
2023-03-17T12:27:35.223Z,74.99
2023-03-17T12:30:46.076Z,75.23
2023-03-17T12:33:30.256Z,75.28
2023-03-17T12:36:01.716Z,75.34
2023-03-17T12:38:31.886Z,75.30
2023-03-17T12:41:28.296Z,75.37
2023-03-17T12:44:23.681Z,75.52
2023-03-17T12:47:10.493Z,75.30
2023-03-17T12:50:17.459Z,75.43
2023-03-17T12:53:30.407Z,75.45
2023-03-17T13:03:19.299Z,75.76
2023-03-17T13:06:04.845Z,76.06
2023-03-17T13:08:43.148Z,76.13
2023-03-17T13:11:25.472Z,76.03
2023-03-17T13:13:55.840Z,76.15
2023-03-17T13:16:38.882Z,76.22
2023-03-17T13:19:29.082Z,76.50
2023-03-17T13:22:02.006Z,76.68
2023-03-17T13:24:52.093Z,76.89
2023-03-17T13:27:31.839Z,76.94
2023-03-17T13:30:22.368Z,76.95
2023-03-17T13:32:56.816Z,77.13
2023-03-17T13:35:42.025Z,76.79
2023-03-17T13:39:18.970Z,77.21
2023-03-17T13:42:18.101Z,77.11
2023-03-17T13:45:54.404Z,77.02
2023-03-17T13:48:36.668Z,76.88
2023-03-17T13:51:16.050Z,76.88
2023-03-17T13:53:57.263Z,76.74
2023-03-17T13:56:49.310Z,76.81
2023-03-17T13:59:35.938Z,76.90
2023-03-17T14:02:24.268Z,77.03
2023-03-17T14:04:58.939Z,77.02
2023-03-17T14:07:36.129Z,77.19
2023-03-17T14:10:13.333Z,77.18
2023-03-17T14:13:01.930Z,77.19
2023-03-17T14:15:49.946Z,77.26
2023-03-17T14:18:24.030Z,77.29
2023-03-17T14:20:59.430Z,77.29
2023-03-17T14:23:33.002Z,77.45
2023-03-17T14:26:04.399Z,77.29
2023-03-17T14:28:37.320Z,77.46
2023-03-17T14:31:21.164Z,77.41
2023-03-17T14:33:55.698Z,77.67
2023-03-17T14:36:25.692Z,77.55
2023-03-17T14:38:57.072Z,77.71
2023-03-17T14:41:33.851Z,77.69
2023-03-17T14:44:05.254Z,77.81
2023-03-17T14:46:38.148Z,77.85
2023-03-17T14:49:23.427Z,77.91
2023-03-17T14:52:02.073Z,77.95
2023-03-17T14:54:36.503Z,78.13
2023-03-17T14:57:16.060Z,78.08
2023-03-17T15:00:04.513Z,77.94
2023-03-17T15:02:38.982Z,78.18
2023-03-17T15:05:17.615Z,78.25
2023-03-17T15:08:39.777Z,77.74
2023-03-17T15:11:36.126Z,77.98
2023-03-17T15:14:32.455Z,78.07
2023-03-17T15:17:19.495Z,78.20
2023-03-17T15:20:10.005Z,78.36
2023-03-17T15:22:44.298Z,78.26
2023-03-17T15:25:24.164Z,78.38
2023-03-17T15:27:57.415Z,78.41
2023-03-17T15:30:46.205Z,78.31
2023-03-17T15:33:37.684Z,78.42
2023-03-17T15:36:31.785Z,78.64
2023-03-17T15:39:04.385Z,78.57
2023-03-17T15:41:37.723Z,78.63
2023-03-17T15:44:14.099Z,78.46
2023-03-17T15:46:43.156Z,78.74
2023-03-17T15:49:18.546Z,78.84
2023-03-17T15:51:56.860Z,78.62
2023-03-17T15:54:27.231Z,78.91
2023-03-17T15:57:01.760Z,78.94
2023-03-17T15:59:33.316Z,78.96
2023-03-17T16:02:28.606Z,78.89
2023-03-17T16:05:02.888Z,79.00
2023-03-17T16:07:34.133Z,78.86
2023-03-17T16:10:35.645Z,78.78
2023-03-17T16:13:15.892Z,78.81
2023-03-17T16:15:57.799Z,78.78
2023-03-17T16:18:39.443Z,78.82
2023-03-17T16:21:19.350Z,78.91
2023-03-17T16:23:56.171Z,79.02
2023-03-17T16:26:27.901Z,79.04
2023-03-17T16:29:02.079Z,79.24
2023-03-17T16:32:14.849Z,79.07
2023-03-17T16:34:49.421Z,79.24
2023-03-17T16:37:18.772Z,79.28
2023-03-17T16:39:55.663Z,79.06
2023-03-17T16:42:27.386Z,79.34
2023-03-17T16:45:03.982Z,79.40
2023-03-17T16:47:37.467Z,79.46
2023-03-17T16:50:42.741Z,79.34
2023-03-17T16:53:33.012Z,79.24
2023-03-17T16:56:02.141Z,79.14
2023-03-17T16:58:53.643Z,79.34
2023-03-17T17:01:33.319Z,79.34
2023-03-17T17:05:02.890Z,79.08
2023-03-17T17:07:34.440Z,79.10
2023-03-17T17:10:11.048Z,78.85
2023-03-17T17:12:44.924Z,78.98
2023-03-17T17:15:21.241Z,79.01
2023-03-17T17:17:56.368Z,78.85
2023-03-17T17:20:41.852Z,79.06
2023-03-17T17:23:12.368Z,79.38
2023-03-17T17:25:51.202Z,79.03
2023-03-17T17:28:25.895Z,79.17
2023-03-17T17:30:53.732Z,79.24
2023-03-17T17:33:27.271Z,79.21
2023-03-17T17:35:56.879Z,79.16
2023-03-17T17:38:35.047Z,79.24
2023-03-17T17:41:11.168Z,79.20
2023-03-17T17:43:43.220Z,79.40
2023-03-17T17:46:18.401Z,79.42
2023-03-17T17:48:47.429Z,79.26
2023-03-17T17:51:21.417Z,79.40
2023-03-17T17:53:56.890Z,79.17
2023-03-17T17:56:27.969Z,79.12
2023-03-17T17:58:57.322Z,79.41
2023-03-17T18:01:25.536Z,79.32
2023-03-17T18:03:55.866Z,79.22
2023-03-17T18:06:28.258Z,79.31
2023-03-17T18:08:59.793Z,79.34
2023-03-17T18:11:34.047Z,79.38
2023-03-17T18:14:03.050Z,79.52
2023-03-17T18:16:31.294Z,79.69
2023-03-17T18:19:05.752Z,79.62
2023-03-17T18:21:36.204Z,79.55
2023-03-17T18:24:12.317Z,79.42
2023-03-17T18:26:42.723Z,79.42
2023-03-17T18:29:14.521Z,79.59
2023-03-17T18:31:49.924Z,79.38
2023-03-17T18:34:25.862Z,79.38
2023-03-17T18:36:59.420Z,79.30
2023-03-17T18:39:27.119Z,79.27
2023-03-17T18:41:57.453Z,79.23
2023-03-17T18:44:32.686Z,79.02
2023-03-17T18:47:01.360Z,78.96
2023-03-17T18:49:34.343Z,79.02
2023-03-17T18:52:04.737Z,79.20
2023-03-17T18:54:37.514Z,78.94
2023-03-17T18:57:05.326Z,78.84
2023-03-17T18:59:32.691Z,78.79
2023-03-17T19:02:01.164Z,78.95
2023-03-17T19:04:39.302Z,78.85
2023-03-17T19:07:09.391Z,78.95
2023-03-17T19:09:45.581Z,78.92
2023-03-17T19:12:14.311Z,78.81
2023-03-17T19:14:44.209Z,78.97
2023-03-17T19:17:15.687Z,78.74
2023-03-17T19:19:50.240Z,78.61
2023-03-17T19:22:18.202Z,78.54
2023-03-17T19:24:50.429Z,78.58
2023-03-17T19:27:24.181Z,78.52
2023-03-17T19:30:01.977Z,78.53
2023-03-17T19:32:29.666Z,78.39
2023-03-17T19:34:58.205Z,78.35
2023-03-17T19:37:26.794Z,78.19
2023-03-17T19:40:00.387Z,78.34
2023-03-17T19:42:32.118Z,78.34
2023-03-17T19:45:00.097Z,78.40
2023-03-17T19:47:33.913Z,78.13
2023-03-17T19:50:02.832Z,78.09
2023-03-17T19:52:30.575Z,78.03
2023-03-17T19:55:02.828Z,78.09
2023-03-17T19:57:32.048Z,77.91
2023-03-17T20:00:00.597Z,77.94
2023-03-17T20:02:38.681Z,77.98
2023-03-17T20:05:08.716Z,77.89
2023-03-17T20:07:37.282Z,77.82
2023-03-17T20:10:06.976Z,77.80
2023-03-17T20:12:39.818Z,77.94
2023-03-17T20:15:11.974Z,77.85
2023-03-17T20:17:40.887Z,78.01
2023-03-17T20:20:13.990Z,78.04
2023-03-17T20:22:45.082Z,77.98
2023-03-17T20:25:16.965Z,77.97
2023-03-17T20:27:49.239Z,78.03
2023-03-17T20:30:17.024Z,78.11
2023-03-17T20:32:44.883Z,78.08
2023-03-17T20:35:12.095Z,78.24
2023-03-17T20:37:43.034Z,78.22
2023-03-17T20:40:16.334Z,78.21
2023-03-17T20:43:28.483Z,78.11
2023-03-17T20:45:58.708Z,77.92
2023-03-17T20:48:28.852Z,77.86
2023-03-17T20:50:58.018Z,77.86
2023-03-17T20:53:32.493Z,78.07
2023-03-17T20:56:00.090Z,78.11
2023-03-17T20:58:28.894Z,78.19
2023-03-17T21:01:04.383Z,78.11
2023-03-17T21:03:56.834Z,78.21
2023-03-17T21:06:28.796Z,78.40
2023-03-17T21:08:57.424Z,78.54
2023-03-17T21:11:29.046Z,78.64
2023-03-17T21:13:57.839Z,78.61
2023-03-17T21:16:26.139Z,78.78
2023-03-17T21:18:55.640Z,79.23
2023-03-17T21:21:22.791Z,79.43
2023-03-17T21:23:51.355Z,79.47
2023-03-17T21:26:22.415Z,79.57
2023-03-17T21:28:52.072Z,79.55
2023-03-17T21:31:20.856Z,79.63
2023-03-17T21:33:50.718Z,79.78
2023-03-17T21:36:18.081Z,79.96
2023-03-17T21:38:47.491Z,79.99
2023-03-17T21:41:35.550Z,80.06
2023-03-17T21:44:09.333Z,79.94
2023-03-17T21:46:37.884Z,80.02
2023-03-17T21:49:11.171Z,79.98
2023-03-17T21:51:38.952Z,79.84
2023-03-17T21:54:06.198Z,79.80
2023-03-17T21:56:35.063Z,79.80
2023-03-17T21:59:03.547Z,79.40
2023-03-17T22:01:30.838Z,79.51
2023-03-17T22:04:00.332Z,79.62
2023-03-17T22:06:29.303Z,79.63
2023-03-17T22:09:00.100Z,79.46
2023-03-17T22:11:27.295Z,79.76
2023-03-17T22:13:55.673Z,79.72
2023-03-17T22:16:24.397Z,79.85
2023-03-17T22:18:53.238Z,79.72
2023-03-17T22:21:21.459Z,80.20
2023-03-17T22:23:56.506Z,80.40
2023-03-17T22:26:29.008Z,80.24
2023-03-17T22:29:06.148Z,80.44
2023-03-17T22:31:35.437Z,80.17
2023-03-17T22:34:07.248Z,79.98
2023-03-17T22:36:36.900Z,80.46
2023-03-17T22:39:10.004Z,80.48
2023-03-17T22:41:38.369Z,80.21
2023-03-17T22:44:09.554Z,80.34
2023-03-17T22:46:37.880Z,80.37
2023-03-17T22:49:07.334Z,80.20
2023-03-17T22:51:41.460Z,80.41
2023-03-17T22:54:13.155Z,80.22
2023-03-17T22:56:41.532Z,80.22
2023-03-17T22:59:10.868Z,80.25
2023-03-17T23:01:42.593Z,80.03
2023-03-17T23:04:11.835Z,80.48
2023-03-17T23:06:41.512Z,80.30
2023-03-17T23:09:09.047Z,80.30
2023-03-17T23:11:40.872Z,80.06
2023-03-17T23:14:14.730Z,80.25
2023-03-17T23:16:42.694Z,80.00
2023-03-17T23:19:10.064Z,80.11
2023-03-17T23:21:39.362Z,80.29
2023-03-17T23:24:09.400Z,80.35
2023-03-17T23:26:41.843Z,80.23
2023-03-17T23:29:10.955Z,80.31
2023-03-17T23:31:39.211Z,80.11
2023-03-17T23:34:08.244Z,80.12
2023-03-17T23:36:39.501Z,80.26
2023-03-17T23:39:08.404Z,79.98
2023-03-17T23:41:37.719Z,80.14
2023-03-17T23:44:09.339Z,80.23
2023-03-17T23:46:41.068Z,80.31
2023-03-17T23:49:10.677Z,80.25
2023-03-17T23:51:40.314Z,80.23
2023-03-17T23:54:09.223Z,80.47
2023-03-17T23:56:36.914Z,80.55
2023-03-17T23:59:07.695Z,80.31
